Time;durP1;ratioP1;P1;durP2;ratioP2;P2;SDS_P1;SDS_P2;PMS_P1;PMS_P2;Temp;Humidity;BMP_temperature;BMP_pressure;BME280_temperature;BME280_humidity;BME280_pressure;Samples;Min_cycle;Max_cycle;Signal;HPM_P1;HPM_P2
2022/03/06 00:01:25;;;;;;;;;;;;;;;2.68;83.52;94735.63;5116560;28;1850;-48
2022/03/06 00:03:51;;;;;;;;;;;;;;;2.82;83.22;94739.78;5116622;28;1012;-47
2022/03/06 00:06:17;;;;;;;;;;;;;;;2.84;82.68;94732.59;5116479;27;1028;-48
2022/03/06 00:08:43;;;;;;;;;;;;;;;2.82;83.08;94730.06;5116905;28;964;-48
2022/03/06 00:11:09;;;;;;;;;;;;;;;2.85;82.85;94729.81;5116726;28;976;-48
2022/03/06 00:13:35;;;;;;;;;;;;;;;2.81;82.92;94733.69;5116290;28;1071;-48
2022/03/06 00:16:02;;;;;;;;;;;;;;;2.78;83.03;94733.09;5116205;28;2012;-47
2022/03/06 00:18:28;;;;;;;;;;;;;;;2.77;82.92;94726.97;5116702;28;1980;-48
2022/03/06 00:20:55;;;;;;;;;;;;;;;2.84;82.94;94733.41;5116396;28;1052;-48
2022/03/06 00:23:21;;;;;;;;;;;;;;;2.85;82.97;94711.34;5116476;27;950;-48
2022/03/06 00:25:47;;;;;;;;;;;;;;;2.86;82.69;94714.81;5116078;28;1045;-48
2022/03/06 00:28:13;;;;;;;;;;;;;;;2.81;83.09;94720.47;5116554;28;987;-48
2022/03/06 00:30:40;;;;;;;;;;;;;;;2.85;83.19;94713.16;5116012;28;1048;-48
2022/03/06 00:33:06;;;;;;;;;;;;;;;2.85;83.22;94719.25;5116308;28;966;-48
2022/03/06 00:35:32;;;;;;;;;;;;;;;2.79;83.36;94709.22;5116020;28;1080;-48
2022/03/06 00:37:58;;;;;;;;;;;;;;;2.90;82.97;94709.16;5115960;28;1979;-48
2022/03/06 00:40:25;;;;;;;;;;;;;;;2.80;83.07;94715.31;5115827;28;1859;-48
2022/03/06 00:42:52;;;;;;;;;;;;;;;2.78;83.26;94704.03;5115510;28;1000;-48
2022/03/06 00:45:18;;;;;;;;;;;;;;;2.89;83.12;94701.38;5115810;28;949;-47
2022/03/06 00:47:44;;;;;;;;;;;;;;;2.85;83.50;94695.50;5115730;28;1076;-48
2022/03/06 00:50:10;;;;;;;;;;;;;;;2.74;83.88;94701.63;5116036;28;988;-48
2022/03/06 00:52:37;;;;;;;;;;;;;;;2.76;84.11;94693.59;5134770;27;1208;-48
2022/03/06 00:55:03;;;;;;;;;;;;;;;2.81;83.52;94686.16;5136408;27;1063;-48
2022/03/06 00:57:29;;;;;;;;;;;;;;;2.81;83.66;94686.16;5136017;27;1902;-48
2022/03/06 00:59:55;;;;;;;;;;;;;;;2.84;83.47;94680.59;5136390;27;1020;-48
2022/03/06 01:02:21;;;;;;;;;;;;;;;2.88;83.40;94681.19;5136050;27;1083;-48
2022/03/06 01:04:48;;;;;;;;;;;;;;;2.84;83.45;94682.41;5136024;27;1028;-47
2022/03/06 01:07:14;;;;;;;;;;;;;;;2.72;83.56;94682.44;5135963;27;969;-48
2022/03/06 01:09:40;;;;;;;;;;;;;;;2.79;83.74;94677.53;5136046;27;1049;-48
2022/03/06 01:12:06;;;;;;;;;;;;;;;2.73;83.43;94670.09;5135487;27;1355;-49
2022/03/06 01:14:32;;;;;;;;;;;;;;;2.87;83.06;94669.81;5136303;27;1004;-48
2022/03/06 01:16:58;;;;;;;;;;;;;;;3.05;82.26;94669.25;5135600;27;1071;-48
2022/03/06 01:19:24;;;;;;;;;;;;;;;2.95;82.53;94679.72;5135822;27;1988;-48
2022/03/06 01:21:50;;;;;;;;;;;;;;;2.76;83.32;94669.84;5135764;27;1043;-48
2022/03/06 01:24:16;;;;;;;;;;;;;;;2.74;83.60;94663.84;5135876;27;924;-48
2022/03/06 01:26:42;;;;;;;;;;;;;;;2.87;83.35;94653.13;5135826;27;1039;-48
2022/03/06 01:29:08;;;;;;;;;;;;;;;2.87;83.44;94658.41;5135935;27;1035;-48
2022/03/06 01:31:34;;;;;;;;;;;;;;;2.89;82.95;94656.47;5135647;27;1038;-48
2022/03/06 01:34:02;;;;;;;;;;;;;;;2.99;82.82;94654.75;5135688;27;1071;-47
2022/03/06 01:36:29;;;;;;;;;;;;;;;3.04;82.52;94649.94;5135292;27;1079;-47
2022/03/06 01:38:55;;;;;;;;;;;;;;;3.04;82.33;94651.75;5135482;27;1913;-48
2022/03/06 01:41:21;;;;;;;;;;;;;;;2.96;82.56;94655.00;5135222;27;1832;-48
2022/03/06 01:43:47;;;;;;;;;;;;;;;2.99;82.70;94648.63;5135074;27;1032;-47
2022/03/06 01:46:13;;;;;;;;;;;;;;;2.94;82.93;94654.31;5135213;27;1026;-47
2022/03/06 01:48:39;;;;;;;;;;;;;;;2.89;83.30;94645.91;5135545;27;971;-47
2022/03/06 01:51:05;;;;;;;;;;;;;;;2.89;83.48;94640.63;5128832;27;1160;-48
2022/03/06 01:53:31;;;;;;;;;;;;;;;2.88;83.55;94644.22;5113845;28;1203;-48
2022/03/06 01:55:57;;;;;;;;;;;;;;;2.90;83.49;94640.50;5114788;28;1047;-47
2022/03/06 01:58:23;;;;;;;;;;;;;;;2.86;83.38;94636.44;5114209;28;1918;-48
2022/03/06 02:00:50;;;;;;;;;;;;;;;2.79;83.93;94644.97;5114420;28;1037;-48
2022/03/06 02:03:17;;;;;;;;;;;;;;;2.80;84.09;94638.75;5114561;28;1008;-47
2022/03/06 02:05:43;;;;;;;;;;;;;;;2.83;83.99;94639.34;5114531;28;1115;-48
2022/03/06 02:08:10;;;;;;;;;;;;;;;2.95;83.28;94636.66;5114443;28;999;-48
2022/03/06 02:10:36;;;;;;;;;;;;;;;2.99;83.28;94638.91;5114305;28;1024;-48
2022/03/06 02:13:03;;;;;;;;;;;;;;;3.10;82.64;94630.91;5113687;28;1233;-48
2022/03/06 02:15:30;;;;;;;;;;;;;;;3.20;82.17;94632.78;5114240;28;1036;-48
2022/03/06 02:17:56;;;;;;;;;;;;;;;3.20;81.99;94633.63;5114202;28;1913;-48
2022/03/06 02:20:23;;;;;;;;;;;;;;;3.08;82.23;94639.94;5114328;28;964;-48
2022/03/06 02:22:51;;;;;;;;;;;;;;;3.04;82.41;94643.81;5113810;28;1184;-48
2022/03/06 02:25:20;;;;;;;;;;;;;;;3.08;82.70;94639.94;5114416;28;1008;-48
2022/03/06 02:27:47;;;;;;;;;;;;;;;3.04;82.95;94636.72;5113731;28;969;-47
2022/03/06 02:30:15;;;;;;;;;;;;;;;3.08;82.59;94632.03;5114002;28;1079;-48
2022/03/06 02:32:41;;;;;;;;;;;;;;;2.95;82.87;94641.94;5113999;28;1031;-48
2022/03/06 02:35:07;;;;;;;;;;;;;;;2.82;83.68;94637.66;5113912;28;1022;-48
2022/03/06 02:37:33;;;;;;;;;;;;;;;2.78;83.96;94633.59;5113628;28;1990;-48
2022/03/06 02:40:00;;;;;;;;;;;;;;;2.86;83.95;94638.25;5113763;28;1076;-48
2022/03/06 02:42:28;;;;;;;;;;;;;;;2.89;83.65;94632.72;5113708;28;1028;-48
2022/03/06 02:44:54;;;;;;;;;;;;;;;2.95;83.36;94640.13;5113946;28;996;-47
2022/03/06 02:47:20;;;;;;;;;;;;;;;3.05;82.94;94629.63;5113771;28;983;-48
2022/03/06 02:49:46;;;;;;;;;;;;;;;3.21;82.07;94634.47;5113608;28;1009;-48
2022/03/06 02:52:12;;;;;;;;;;;;;;;3.01;82.60;94629.03;5129458;28;1126;-47
2022/03/06 02:54:38;;;;;;;;;;;;;;;2.82;83.80;94637.66;5134430;28;976;-48
2022/03/06 02:57:05;;;;;;;;;;;;;;;2.81;83.83;94628.06;5134117;27;968;-48
2022/03/06 02:59:31;;;;;;;;;;;;;;;2.83;83.83;94627.94;5133975;27;1906;-48
2022/03/06 03:01:58;;;;;;;;;;;;;;;2.98;83.02;94634.59;5134356;27;1018;-48
2022/03/06 03:04:24;;;;;;;;;;;;;;;2.85;83.45;94633.94;5134047;27;1060;-48
2022/03/06 03:06:50;;;;;;;;;;;;;;;2.98;83.22;94639.88;5137508;27;1095;-47
2022/03/06 03:09:19;;;;;;;;;;;;;;;2.98;82.68;94646.94;5138242;27;1848;-47
2022/03/06 03:11:46;;;;;;;;;;;;;;;3.05;82.69;94645.47;5138044;27;1015;-48
2022/03/06 03:14:13;;;;;;;;;;;;;;;3.13;82.15;94641.25;5138057;27;1075;-48
2022/03/06 03:16:39;;;;;;;;;;;;;;;3.07;82.52;94640.91;5138553;27;982;-48
2022/03/06 03:19:06;;;;;;;;;;;;;;;3.04;82.13;94646.47;5138052;27;1988;-47
2022/03/06 03:21:32;;;;;;;;;;;;;;;2.98;82.11;94649.59;5138421;27;1067;-48
2022/03/06 03:23:58;;;;;;;;;;;;;;;2.79;83.21;94648.47;5138140;27;1051;-48
2022/03/06 03:26:24;;;;;;;;;;;;;;;2.80;82.59;94639.59;5138016;27;1038;-47
2022/03/06 03:28:50;;;;;;;;;;;;;;;3.00;82.58;94647.66;5137808;27;1019;-48
2022/03/06 03:31:17;;;;;;;;;;;;;;;2.98;82.59;94650.44;5138316;27;983;-48
2022/03/06 03:33:43;;;;;;;;;;;;;;;2.89;82.77;94648.56;5137729;27;1929;-48
2022/03/06 03:36:09;;;;;;;;;;;;;;;2.93;82.86;94657.91;5138266;27;1040;-47
2022/03/06 03:38:35;;;;;;;;;;;;;;;2.87;82.37;94648.69;5137749;27;1913;-48
2022/03/06 03:41:01;;;;;;;;;;;;;;;2.74;83.03;94650.66;5137900;27;960;-48
2022/03/06 03:43:28;;;;;;;;;;;;;;;2.71;83.34;94650.91;5137384;27;1314;-48
2022/03/06 03:45:54;;;;;;;;;;;;;;;2.66;83.65;94651.28;5137763;27;1051;-48
2022/03/06 03:48:20;;;;;;;;;;;;;;;2.74;83.44;94653.28;5137611;27;953;-47
2022/03/06 03:50:46;;;;;;;;;;;;;;;2.75;83.30;94647.03;5133923;27;1148;-48
2022/03/06 03:53:12;;;;;;;;;;;;;;;2.72;83.38;94649.94;5116886;28;1098;-48
2022/03/06 03:55:38;;;;;;;;;;;;;;;2.65;83.67;94648.75;5117146;28;984;-48
2022/03/06 03:58:04;;;;;;;;;;;;;;;2.57;83.96;94652.03;5116934;28;1902;-47
2022/03/06 04:00:30;;;;;;;;;;;;;;;2.70;83.91;94643.97;5116939;28;1043;-48
2022/03/06 04:02:56;;;;;;;;;;;;;;;2.85;82.51;94650.63;5117041;28;1051;-47
2022/03/06 04:05:22;;;;;;;;;;;;;;;2.73;83.08;94641.03;5116539;28;1820;-48
2022/03/06 04:07:48;;;;;;;;;;;;;;;2.57;83.99;94648.56;5116698;28;988;-48
2022/03/06 04:10:14;;;;;;;;;;;;;;;2.62;84.08;94649.00;5116397;28;972;-47
2022/03/06 04:12:40;;;;;;;;;;;;;;;2.60;84.08;94650.94;5116661;28;1164;-48
2022/03/06 04:15:06;;;;;;;;;;;;;;;2.69;83.82;94650.19;5116562;28;968;-47
2022/03/06 04:17:32;;;;;;;;;;;;;;;2.71;83.28;94642.97;5116156;28;1909;-47
2022/03/06 04:19:58;;;;;;;;;;;;;;;2.66;83.44;94643.38;5116245;28;960;-48
2022/03/06 04:22:24;;;;;;;;;;;;;;;2.71;83.31;94650.91;5116502;28;972;-48
2022/03/06 04:24:50;;;;;;;;;;;;;;;2.67;83.54;94652.13;5116064;28;968;-48
2022/03/06 04:27:16;;;;;;;;;;;;;;;2.83;82.89;94643.78;5116362;28;1095;-48
2022/03/06 04:29:42;;;;;;;;;;;;;;;2.96;82.05;94643.59;5116694;28;1027;-48
2022/03/06 04:32:08;;;;;;;;;;;;;;;2.81;82.73;94643.06;5116316;28;1079;-48
2022/03/06 04:34:35;;;;;;;;;;;;;;;2.71;83.24;94637.69;5116216;28;984;-47
2022/03/06 04:37:01;;;;;;;;;;;;;;;2.57;83.44;94641.47;5116308;28;1015;-47
2022/03/06 04:39:28;;;;;;;;;;;;;;;2.52;84.01;94643.63;5115830;28;1913;-48
2022/03/06 04:41:54;;;;;;;;;;;;;;;2.47;84.48;94638.75;5115778;28;1092;-47
2022/03/06 04:44:20;;;;;;;;;;;;;;;2.48;84.32;94640.41;5116147;28;1019;-48
2022/03/06 04:46:46;;;;;;;;;;;;;;;2.48;84.45;94647.50;5116017;28;961;-48
2022/03/06 04:49:12;;;;;;;;;;;;;;;2.59;84.01;94646.63;5115874;28;1040;-48
2022/03/06 04:51:38;;;;;;;;;;;;;;;2.49;84.28;94650.00;5126820;27;1257;-48
2022/03/06 04:54:05;;;;;;;;;;;;;;;2.48;84.44;94648.31;5136311;27;1039;-48
2022/03/06 04:56:31;;;;;;;;;;;;;;;2.59;83.86;94642.19;5136425;27;1024;-48
2022/03/06 04:58:57;;;;;;;;;;;;;;;2.55;84.37;94646.03;5136299;27;1990;-47
2022/03/06 05:01:23;;;;;;;;;;;;;;;2.51;84.34;94652.53;5136244;27;1040;-47
2022/03/06 05:03:49;;;;;;;;;;;;;;;2.52;84.30;94656.84;5136036;27;1020;-48
2022/03/06 05:06:15;;;;;;;;;;;;;;;2.59;84.10;94651.91;5136238;27;968;-47
2022/03/06 05:08:41;;;;;;;;;;;;;;;2.65;84.02;94649.59;5136065;27;1023;-47
2022/03/06 05:11:07;;;;;;;;;;;;;;;2.66;83.85;94656.56;5135804;27;1020;-47
2022/03/06 05:13:33;;;;;;;;;;;;;;;2.71;83.14;94658.81;5135740;27;1190;-48
2022/03/06 05:15:59;;;;;;;;;;;;;;;2.57;83.84;94665.22;5135871;27;1007;-47
2022/03/06 05:18:25;;;;;;;;;;;;;;;2.63;83.86;94661.25;5136203;27;1905;-47
2022/03/06 05:20:51;;;;;;;;;;;;;;;2.80;83.17;94670.44;5135593;27;1094;-48
2022/03/06 05:23:18;;;;;;;;;;;;;;;2.81;82.61;94669.44;5135764;27;1024;-47
2022/03/06 05:25:45;;;;;;;;;;;;;;;2.66;82.95;94668.94;5135781;27;1024;-47
2022/03/06 05:28:11;;;;;;;;;;;;;;;2.59;83.69;94673.03;5134803;27;1995;-47
2022/03/06 05:30:37;;;;;;;;;;;;;;;2.64;83.22;94681.41;5135744;27;957;-47
2022/03/06 05:33:03;;;;;;;;;;;;;;;2.58;83.70;94680.13;5135758;27;1071;-48
2022/03/06 05:35:29;;;;;;;;;;;;;;;2.57;83.80;94677.59;5135344;27;1072;-47
2022/03/06 05:37:55;;;;;;;;;;;;;;;2.65;83.78;94681.25;5135364;27;1905;-48
2022/03/06 05:40:22;;;;;;;;;;;;;;;2.68;83.19;94672.28;5135253;27;1075;-47
2022/03/06 05:42:48;;;;;;;;;;;;;;;2.78;82.47;94681.13;5135125;27;1148;-47
2022/03/06 05:45:14;;;;;;;;;;;;;;;2.79;82.79;94681.94;5135205;27;1083;-47
2022/03/06 05:47:41;;;;;;;;;;;;;;;2.81;82.67;94683.50;5135267;27;1036;-47
2022/03/06 06:12:32;;;;;;;;;;;;;;;1.92;88.08;94704.63;4756692;27;1367111;-46
2022/03/06 06:14:58;;;;;;;;;;;;;;;2.18;86.93;94709.66;5152116;27;1869;-46
2022/03/06 06:17:24;;;;;;;;;;;;;;;2.52;85.09;94710.47;5152058;27;980;-48
2022/03/06 06:19:50;;;;;;;;;;;;;;;2.67;83.68;94713.66;5151960;27;1133;-46
2022/03/06 06:22:16;;;;;;;;;;;;;;;2.57;84.35;94725.09;5152078;27;957;-46
2022/03/06 06:24:42;;;;;;;;;;;;;;;2.62;84.12;94720.25;5152329;27;953;-48
2022/03/06 06:27:08;;;;;;;;;;;;;;;2.61;84.05;94722.06;5151670;27;1995;-46
2022/03/06 06:29:34;;;;;;;;;;;;;;;2.68;83.81;94722.44;5151863;27;1172;-47
2022/03/06 06:32:00;;;;;;;;;;;;;;;2.61;84.05;94714.16;5151871;27;968;-47
2022/03/06 06:34:26;;;;;;;;;;;;;;;2.54;84.33;94719.09;5152047;27;1210;-46
2022/03/06 06:36:57;;;;;;;;;;;;;;;2.55;84.75;94719.94;5151770;27;1047;-46
2022/03/06 06:39:25;;;;;;;;;;;;;;;2.68;84.31;94710.06;5152071;27;984;-47
2022/03/06 06:41:51;;;;;;;;;;;;;;;2.73;83.36;94725.53;5151398;27;957;-47
2022/03/06 06:44:17;;;;;;;;;;;;;;;2.82;82.75;94729.22;5151842;27;1095;-47
2022/03/06 06:46:43;;;;;;;;;;;;;;;2.93;83.26;94735.31;5151701;27;987;-48
2022/03/06 06:49:10;;;;;;;;;;;;;;;3.04;81.90;94738.91;5151359;27;1969;-47
2022/03/06 06:51:38;;;;;;;;;;;;;;;3.13;80.44;94738.16;5151433;27;1161;-48
2022/03/06 06:54:04;;;;;;;;;;;;;;;3.07;80.53;94752.69;5151598;27;1025;-47
2022/03/06 06:56:30;;;;;;;;;;;;;;;2.96;81.45;94760.66;5151130;27;1024;-47
2022/03/06 06:58:56;;;;;;;;;;;;;;;2.98;81.67;94763.16;5151498;27;1032;-47
2022/03/06 07:01:23;;;;;;;;;;;;;;;3.05;81.46;94761.69;5151106;27;1028;-48
2022/03/06 07:03:49;;;;;;;;;;;;;;;3.07;81.51;94767.69;5151190;27;1015;-46
2022/03/06 07:06:15;;;;;;;;;;;;;;;2.99;81.53;94756.91;5151340;27;1032;-47
2022/03/06 07:08:41;;;;;;;;;;;;;;;2.81;82.33;94751.31;5151307;27;1905;-46
2022/03/06 07:11:07;;;;;;;;;;;;;;;2.75;82.51;94763.19;5151069;27;1225;-46
2022/03/06 07:13:34;;;;;;;;;;;;;;;2.66;82.75;94767.44;5150931;27;955;-47
2022/03/06 07:16:00;;;;;;;;;;;;;;;2.73;82.23;94765.13;5142141;27;2511;-47
2022/03/06 07:18:26;;;;;;;;;;;;;;;2.85;82.04;94766.78;5128885;28;1019;-46
2022/03/06 07:20:53;;;;;;;;;;;;;;;2.91;81.73;94761.00;5116478;28;1000;-47
2022/03/06 07:23:19;;;;;;;;;;;;;;;2.97;81.58;94761.47;5116416;28;1881;-47
2022/03/06 07:25:46;;;;;;;;;;;;;;;2.97;81.42;94764.13;5116492;28;1020;-46
2022/03/06 07:28:12;;;;;;;;;;;;;;;2.99;81.32;94764.84;5116300;28;1906;-46
2022/03/06 07:30:38;;;;;;;;;;;;;;;2.99;81.74;94770.13;5116563;28;1023;-47
2022/03/06 07:33:04;;;;;;;;;;;;;;;3.01;81.89;94765.53;5115991;28;1020;-46
2022/03/06 07:35:30;;;;;;;;;;;;;;;3.05;81.18;94769.59;5116668;28;985;-46
2022/03/06 07:38:27;;;;;;;;;;;;;;;3.10;81.55;94763.00;5117558;27;2497;-48
2022/03/06 07:40:53;;;;;;;;;;;;;;;3.15;81.33;94760.00;5115758;28;1048;-48
2022/03/06 07:43:19;;;;;;;;;;;;;;;3.22;80.86;94747.94;5115841;28;1072;-47
2022/03/06 07:45:45;;;;;;;;;;;;;;;3.23;80.26;94748.78;5129013;27;1184;-47
2022/03/06 07:48:11;;;;;;;;;;;;;;;3.35;79.66;94742.47;5130492;27;1913;-47
2022/03/06 07:50:37;;;;;;;;;;;;;;;3.42;78.43;94742.81;5134509;27;1161;-47
2022/03/06 07:53:04;;;;;;;;;;;;;;;3.45;78.93;94753.97;5115752;28;1036;-48
2022/03/06 07:55:30;;;;;;;;;;;;;;;3.49;79.05;94751.91;5115959;28;1112;-48
2022/03/06 07:57:56;;;;;;;;;;;;;;;3.42;78.93;94748.09;5115713;28;957;-48
2022/03/06 08:00:22;;;;;;;;;;;;;;;3.47;79.04;94744.13;5116068;28;1057;-47
2022/03/06 08:02:48;;;;;;;;;;;;;;;3.40;79.06;94744.75;5115879;28;1027;-47
2022/03/06 08:05:14;;;;;;;;;;;;;;;3.40;79.02;94739.47;5115784;28;1028;-47
2022/03/06 08:07:40;;;;;;;;;;;;;;;3.47;79.56;94743.25;5115530;28;1991;-48
2022/03/06 08:10:08;;;;;;;;;;;;;;;3.56;78.52;94749.59;5115533;28;1108;-48
2022/03/06 08:12:34;;;;;;;;;;;;;;;3.64;77.96;94748.00;5115125;28;1555;-48
2022/03/06 08:15:00;;;;;;;;;;;;;;;3.69;78.17;94751.06;5097342;28;1047;-48
2022/03/06 08:17:26;;;;;;;;;;;;;;;3.69;78.98;94751.06;5115380;28;1084;-47
2022/03/06 08:19:53;;;;;;;;;;;;;;;3.78;78.33;94749.47;5115642;28;1040;-48
2022/03/06 08:22:21;;;;;;;;;;;;;;;3.78;78.80;94749.47;5115719;28;972;-47
2022/03/06 08:24:47;;;;;;;;;;;;;;;3.89;77.66;94751.22;5115656;28;1023;-47
2022/03/06 08:27:13;;;;;;;;;;;;;;;4.02;77.56;94746.56;5115317;28;1913;-48
2022/03/06 08:29:39;;;;;;;;;;;;;;;3.98;77.00;94745.13;5115025;28;969;-48
2022/03/06 08:32:05;;;;;;;;;;;;;;;3.91;77.27;94750.09;5114540;28;1055;-48
2022/03/06 08:34:31;;;;;;;;;;;;;;;4.04;77.04;94744.63;5115313;28;1059;-48
2022/03/06 08:36:57;;;;;;;;;;;;;;;4.11;77.21;94727.22;5115059;28;1028;-47
2022/03/06 08:39:23;;;;;;;;;;;;;;;3.95;77.44;94734.81;5115194;28;1047;-48
2022/03/06 08:41:49;;;;;;;;;;;;;;;3.92;77.15;94735.91;5114729;28;1064;-47
2022/03/06 08:44:15;;;;;;;;;;;;;;;3.98;77.79;94734.53;5114800;28;1008;-48
2022/03/06 08:46:41;;;;;;;;;;;;;;;4.06;77.10;94734.75;5114544;28;1090;-48
2022/03/06 08:49:07;;;;;;;;;;;;;;;4.13;75.95;94734.19;5096430;28;1995;-47
2022/03/06 08:51:35;;;;;;;;;;;;;;;4.06;76.76;94745.31;5114917;28;1213;-47
2022/03/06 08:54:01;;;;;;;;;;;;;;;3.81;77.36;94746.53;5114601;28;1053;-47
2022/03/06 08:56:27;;;;;;;;;;;;;;;3.66;78.30;94748.72;5114836;28;1157;-47
2022/03/06 08:58:53;;;;;;;;;;;;;;;3.54;78.99;94747.06;5114625;28;996;-48
2022/03/06 09:01:19;;;;;;;;;;;;;;;3.46;79.30;94750.34;5114679;28;1023;-47
2022/03/06 09:03:45;;;;;;;;;;;;;;;3.52;79.21;94754.28;5114562;28;1158;-47
2022/03/06 09:06:11;;;;;;;;;;;;;;;3.73;79.16;94746.38;5114407;28;1041;-47
2022/03/06 09:08:37;;;;;;;;;;;;;;;4.13;77.95;94752.72;5114145;28;1910;-48
2022/03/06 09:11:06;;;;;;;;;;;;;;;4.42;76.91;94753.72;5114210;28;1249;-49
2022/03/06 09:13:33;;;;;;;;;;;;;;;4.59;76.38;94749.59;5113788;28;968;-47
2022/03/06 09:15:59;;;;;;;;;;;;;;;4.56;76.44;94756.97;5114026;28;1033;-48
2022/03/06 09:18:25;;;;;;;;;;;;;;;4.54;75.40;94757.09;5113992;28;1012;-48
2022/03/06 09:20:51;;;;;;;;;;;;;;;4.57;75.90;94754.19;5096100;28;965;-48
2022/03/06 09:23:17;;;;;;;;;;;;;;;4.56;75.24;94764.91;5113979;28;1107;-48
2022/03/06 09:25:43;;;;;;;;;;;;;;;4.50;74.97;94771.56;5113799;28;1040;-48
2022/03/06 09:28:09;;;;;;;;;;;;;;;4.38;75.38;94781.41;5114307;28;1985;-48
2022/03/06 09:30:35;;;;;;;;;;;;;;;4.25;76.64;94768.41;5113909;28;1079;-48
2022/03/06 09:33:01;;;;;;;;;;;;;;;4.25;77.12;94775.47;5114028;28;917;-48
2022/03/06 09:35:27;;;;;;;;;;;;;;;4.22;77.11;94779.22;5113913;28;1963;-48
2022/03/06 09:37:54;;;;;;;;;;;;;;;4.19;77.77;94778.66;5113866;28;1018;-48
2022/03/06 09:40:20;;;;;;;;;;;;;;;4.08;77.14;94779.59;5113891;28;1047;-48
2022/03/06 09:42:46;;;;;;;;;;;;;;;4.14;77.87;94778.22;5113720;28;996;-49
2022/03/06 09:45:13;;;;;;;;;;;;;;;4.13;77.57;94776.53;5114051;28;929;-48
2022/03/06 09:47:40;;;;;;;;;;;;;;;4.01;77.23;94776.63;5113722;28;1986;-48
2022/03/06 09:50:08;;;;;;;;;;;;;;;3.96;78.32;94770.03;5113878;28;1032;-48
2022/03/06 09:52:34;;;;;;;;;;;;;;;3.79;78.55;94776.75;5113685;28;1221;-48
2022/03/06 09:55:00;;;;;;;;;;;;;;;3.60;79.13;94774.81;5113687;28;1003;-47
2022/03/06 09:57:26;;;;;;;;;;;;;;;3.59;79.47;94781.06;5113672;28;1217;-48
2022/03/06 09:59:53;;;;;;;;;;;;;;;3.69;79.67;94781.97;5113654;28;1006;-47
2022/03/06 10:02:19;;;;;;;;;;;;;;;3.71;79.13;94772.09;5113992;28;1004;-48
2022/03/06 10:04:46;;;;;;;;;;;;;;;3.75;79.65;94775.34;5113464;28;1025;-48
2022/03/06 10:07:13;;;;;;;;;;;;;;;3.74;79.67;94779.78;5113321;28;1906;-48
2022/03/06 10:09:49;;;;;;;;;;;;;;;3.71;79.91;94775.56;5113498;28;1012;-48
2022/03/06 10:12:19;;;;;;;;;;;;;;;3.68;80.05;94773.22;5113327;28;1231;-48
2022/03/06 10:14:45;;;;;;;;;;;;;;;3.69;80.24;94772.22;5113402;28;1948;-48
2022/03/06 10:17:15;;;;;;;;;;;;;;;3.72;80.07;94773.78;5113613;28;1069;-48
2022/03/06 10:19:48;;;;;;;;;;;;;;;3.59;80.31;94784.53;5113389;28;1027;-48
2022/03/06 10:22:14;;;;;;;;;;;;;;;3.57;79.99;94781.19;5115579;28;1180;-49
2022/03/06 10:24:54;;;;;;;;;;;;;;;3.61;79.89;94781.78;5127409;28;1378;-49
2022/03/06 10:27:40;;;;;;;;;;;;;;;3.61;80.48;94774.69;5133773;28;1983;-48
2022/03/06 10:30:26;;;;;;;;;;;;;;;3.61;80.36;94781.78;5133724;28;1795;-48
2022/03/06 10:32:53;;;;;;;;;;;;;;;3.69;80.19;94785.44;5116682;28;1762;-49
2022/03/06 10:35:19;;;;;;;;;;;;;;;3.87;80.38;94779.56;5133869;28;1075;-48
2022/03/06 10:37:45;;;;;;;;;;;;;;;3.86;79.89;94773.44;5133636;28;1216;-48
2022/03/06 10:40:14;;;;;;;;;;;;;;;3.71;80.21;94778.22;5132891;28;1313;-49
2022/03/06 10:42:43;;;;;;;;;;;;;;;3.59;80.86;94781.91;5133944;28;1022;-49
2022/03/06 10:45:23;;;;;;;;;;;;;;;3.54;81.20;94781.44;5133820;28;1020;-50
2022/03/06 10:47:49;;;;;;;;;;;;;;;3.48;81.38;94781.97;5133727;28;1914;-48
2022/03/06 10:50:20;;;;;;;;;;;;;;;3.59;81.08;94781.06;5133696;28;1182;-48
2022/03/06 10:52:46;;;;;;;;;;;;;;;3.57;80.48;94783.00;5113437;28;1219;-49
2022/03/06 10:55:12;;;;;;;;;;;;;;;3.58;80.17;94784.66;5115665;28;949;-48
2022/03/06 11:13:02;;;;;;;;;;;;;;;2.89;85.38;94785.88;4741362;27;2308287;-47
2022/03/06 11:15:28;;;;;;;;;;;;;;;3.11;84.17;94785.81;5110736;28;1194;-48
2022/03/06 11:17:57;;;;;;;;;;;;;;;3.41;82.93;94776.31;5111107;28;999;-47
2022/03/06 11:20:23;;;;;;;;;;;;;;;3.55;81.57;94774.34;5111076;28;1015;-48
2022/03/06 11:22:52;;;;;;;;;;;;;;;3.60;81.58;94780.09;5111020;28;1035;-47
2022/03/06 11:25:21;;;;;;;;;;;;;;;3.49;81.88;94775.69;5110811;28;1227;-48
2022/03/06 11:27:57;;;;;;;;;;;;;;;3.42;82.03;94775.38;5110855;28;1909;-48
2022/03/06 11:30:24;;;;;;;;;;;;;;;3.54;81.54;94773.50;5110611;28;1039;-47
2022/03/06 11:33:11;;;;;;;;;;;;;;;3.62;80.82;94775.50;5110003;28;1422;-47
2022/03/06 11:35:41;;;;;;;;;;;;;;;3.59;80.83;94771.31;5110734;28;991;-48
2022/03/06 11:38:08;;;;;;;;;;;;;;;3.64;81.00;94769.16;5110807;28;1012;-47
2022/03/06 11:40:40;;;;;;;;;;;;;;;3.75;80.54;94764.75;5110379;28;1067;-47
2022/03/06 11:43:07;;;;;;;;;;;;;;;3.87;79.67;94764.56;5110160;28;1307;-47
2022/03/06 11:45:42;;;;;;;;;;;;;;;4.03;79.92;94763.25;5108976;28;1447;-47
2022/03/06 11:48:08;;;;;;;;;;;;;;;4.03;79.35;94752.69;5110352;28;1984;-48
2022/03/06 11:50:34;;;;;;;;;;;;;;;4.10;79.23;94754.66;5110450;28;1138;-47
2022/03/06 11:53:18;;;;;;;;;;;;;;;4.24;79.06;94761.41;5110474;28;969;-47
2022/03/06 12:03:03;;;;;;;;;;;;;;;4.14;79.62;94767.66;4749866;27;1796962;-48
2022/03/06 12:05:52;;;;;;;;;;;;;;;4.29;77.99;94763.69;5151929;27;1214;-48
2022/03/06 12:08:18;;;;;;;;;;;;;;;4.27;77.90;94771.75;5152252;27;983;-48
2022/03/06 12:17:19;;;;;;;;;;;;;;;3.76;79.22;94762.00;4826304;27;1305163;-48
2022/03/06 12:19:45;;;;;;;;;;;;;;;3.91;78.03;94759.84;5152590;27;963;-48
2022/03/06 12:22:15;;;;;;;;;;;;;;;3.99;78.09;94765.31;5152464;27;968;-48
2022/03/06 12:30:32;;;;;;;;;;;;;;;3.92;78.33;94762.34;5173627;27;734;-48
2022/03/06 12:33:18;;;;;;;;;;;;;;;4.14;77.95;94760.53;5172876;27;1074;-47
2022/03/06 12:35:44;;;;;;;;;;;;;;;4.25;77.69;94759.59;5152538;27;1577;-48
2022/03/06 12:38:20;;;;;;;;;;;;;;;4.38;77.53;94762.88;5152097;27;987;-48
2022/03/06 12:40:46;;;;;;;;;;;;;;;4.62;76.38;94756.41;5148858;27;2062;-48
2022/03/06 12:43:17;;;;;;;;;;;;;;;4.74;76.28;94763.25;5151798;27;1620;-48
2022/03/06 12:45:44;;;;;;;;;;;;;;;4.81;75.63;94763.56;5132569;27;1947;-48
2022/03/06 12:48:10;;;;;;;;;;;;;;;4.85;75.71;94765.81;5131209;28;1962;-48
2022/03/06 12:50:36;;;;;;;;;;;;;;;4.73;75.47;94761.59;5131263;28;1271;-48
2022/03/06 12:53:02;;;;;;;;;;;;;;;4.54;74.80;94762.38;5131339;28;1015;-48
2022/03/06 12:55:28;;;;;;;;;;;;;;;4.47;76.86;94774.47;5130994;28;1572;-48
2022/03/06 12:57:55;;;;;;;;;;;;;;;4.47;76.16;94767.34;5131300;28;1141;-48
2022/03/06 13:00:29;;;;;;;;;;;;;;;4.29;77.37;94772.44;5131215;28;966;-48
2022/03/06 13:02:55;;;;;;;;;;;;;;;4.33;76.77;94773.03;5130773;28;1102;-48
2022/03/06 13:05:23;;;;;;;;;;;;;;;4.26;75.08;94778.00;5131001;28;1913;-48
2022/03/06 13:15:12;;;;;;;;;;;;;;;3.37;78.22;94771.44;5110858;27;1292;-47
2022/03/06 13:17:42;;;;;;;;;;;;;;;3.31;79.60;94784.16;5110982;28;1015;-47
2022/03/06 13:20:09;;;;;;;;;;;;;;;3.50;78.95;94780.84;5111185;28;972;-47
2022/03/06 13:22:35;;;;;;;;;;;;;;;3.71;78.13;94777.38;5111101;28;1032;-48
2022/03/06 13:25:02;;;;;;;;;;;;;;;3.81;78.38;94780.09;5110738;28;1095;-47
2022/03/06 13:27:30;;;;;;;;;;;;;;;3.76;77.95;94782.31;5110705;28;1032;-50
2022/03/06 13:30:11;;;;;;;;;;;;;;;3.76;78.46;94769.91;5110940;28;1067;-50
2022/03/06 13:32:43;;;;;;;;;;;;;;;3.97;78.03;94769.91;5110559;28;1030;-49
2022/03/06 13:35:24;;;;;;;;;;;;;;;4.04;77.14;94776.38;5110479;28;1553;-47
2022/03/06 13:37:54;;;;;;;;;;;;;;;3.81;77.22;94774.81;5110619;28;995;-48
2022/03/06 13:40:22;;;;;;;;;;;;;;;3.74;78.80;94786.88;5110417;28;1317;-48
2022/03/06 13:42:48;;;;;;;;;;;;;;;3.69;78.45;94793.38;5109831;28;1648;-48
2022/03/06 13:45:14;;;;;;;;;;;;;;;3.45;78.19;94790.97;5110285;28;1555;-48
2022/03/06 13:48:07;;;;;;;;;;;;;;;3.35;78.87;94794.50;5110293;28;1071;-48
2022/03/06 13:50:37;;;;;;;;;;;;;;;3.39;79.82;94798.56;5107740;28;2101;-48
2022/03/06 13:53:04;;;;;;;;;;;;;;;3.45;80.14;94803.34;5110304;28;1988;-47
2022/03/06 13:55:32;;;;;;;;;;;;;;;3.37;79.54;94795.22;5094270;28;1158;-47
2022/03/06 13:57:59;;;;;;;;;;;;;;;3.42;79.50;94793.88;5089430;28;1028;-49
2022/03/06 14:00:26;;;;;;;;;;;;;;;3.33;79.76;94797.25;5089352;28;1044;-48
2022/03/06 14:03:05;;;;;;;;;;;;;;;3.41;79.55;94802.75;5088835;28;989;-48
2022/03/06 14:05:33;;;;;;;;;;;;;;;3.60;79.41;94795.94;5088463;28;1225;-49
2022/03/06 14:08:29;;;;;;;;;;;;;;;3.43;79.07;94797.34;5088405;28;1024;-49
2022/03/06 14:10:58;;;;;;;;;;;;;;;3.28;79.99;94800.28;5076028;28;1464;-49
2022/03/06 14:13:30;;;;;;;;;;;;;;;3.31;79.43;94800.03;5088352;28;1988;-49
2022/03/06 14:16:04;;;;;;;;;;;;;;;3.40;79.87;94793.16;5089430;28;1076;-49